Adak, AK (99546)

12:44 PM HST on February 10, 2016 (GMT -1000)
Adak | | Change Station
CLOSE
Current Station
Airport
Location: Adak,
Elevation: 13 ft
Nearby Weather Stations

Elev 13 ft 51.88 °N, 176.65 °W | Updated 8 minutes ago

Overcast
Overcast
37 °F
Feels Like 37 °F
N
0
Wind Variable Wind from North

Today
High -- | Low -- °F
--% Chance of Precip.
Yesterday
High -- | Low -- °F
Precip. -- in
Pressure 29.48 in
Visibility 10.0 miles
Clouds Few 1200 ft
Mostly Cloudy 3600 ft
Overcast 4500 ft
Dew Point 28 °F
Humidity 70%
Rainfall 0.22 in
Snow Depth Not available.
9:11 AM 6:51 PM
Waxing Crescent, 7% visible
METAR PADK 102236Z 00000KT 10SM FEW012 BKN036 OVC045 03/M02 A2948 RMK AO1 P0001
Pressure 29.48 in
Visibility 10.0 miles
Clouds Few 1200 ft
Mostly Cloudy 3600 ft
Overcast 4500 ft
Dew Point 28 °F
Humidity 70%
Rainfall 0.22 in
Snow Depth Not available.
9:11 AM 6:51 PM
Waxing Crescent, 7% visible
METAR PADK 102236Z 00000KT 10SM FEW012 BKN036 OVC045 03/M02 A2948 RMK AO1 P0001

10-Day Weather Forecast

Almanac

Astronomy

Feb. 10, 2016 Rise Set
Actual Time
Civil Twilight
Nautical Twilight
Astronomical Twilight
Moon
Length of Visible Light
Length of Day
Tomorrow will be .
, % of the Moon is Illuminated

Today's Extremes

State Highs State Lows

Community

WunderPhotos

Upload Photos

1,891,940 photos uploaded!

WunderBlog® & News

Nearby

Air Quality

  Air Quality AQ Index Pollutant
Not available.

Snow Depth

Station Depth Elevation

Earthquake Activity

City Distance Mag. Time & Date
Minimum magnitude displayed is 2.5.

Coastal Water Temperatures

Place Temperature

Stations

Nearby Weather Stations

Station Location Temp. Windchill Dew Point Humidity Wind Precip. Elev Updated Type
                   

Watches & Warnings

There are currently no watches in effect.